createdAt,value
2017-05-05T00:00:01.998Z,65.14
2017-05-05T00:01:12.343Z,65.14
2017-05-05T00:02:22.373Z,65.33
2017-05-05T00:03:32.720Z,65.23
2017-05-05T00:04:42.766Z,65.14
2017-05-05T00:05:52.808Z,65.14
2017-05-05T00:07:03.141Z,64.75
2017-05-05T00:08:13.173Z,64.82
2017-05-05T00:09:23.517Z,64.82
2017-05-05T00:10:33.876Z,64.43
2017-05-05T00:11:44.207Z,64.72
2017-05-05T00:12:54.548Z,64.72
2017-05-05T00:14:04.909Z,64.53
2017-05-05T00:15:15.281Z,64.34
2017-05-05T00:16:25.605Z,64.28
2017-05-05T00:17:35.940Z,64.25
2017-05-05T00:18:46.288Z,64.34
2017-05-05T00:19:56.637Z,64.34
2017-05-05T00:21:06.670Z,64.15
2017-05-05T00:22:17.017Z,64.62
2017-05-05T00:23:27.080Z,64.25
2017-05-05T00:24:37.121Z,64.47
2017-05-05T00:25:47.489Z,64.66
2017-05-05T00:26:57.835Z,64.43
2017-05-05T00:28:08.191Z,64.47
2017-05-05T00:29:18.227Z,64.37
2017-05-05T00:30:28.263Z,64.28
2017-05-05T00:31:38.591Z,64.34
2017-05-05T00:32:48.932Z,64.34
2017-05-05T00:33:59.286Z,64.43
2017-05-05T00:35:09.321Z,64.82
2017-05-05T00:36:19.669Z,64.82
2017-05-05T00:37:30.029Z,65.01
2017-05-05T00:38:40.377Z,65.11
2017-05-05T00:39:50.405Z,64.82
2017-05-05T00:41:00.779Z,65.2
2017-05-05T00:42:11.115Z,64.82
2017-05-05T00:43:21.459Z,64.82
2017-05-05T00:44:31.830Z,64.82
2017-05-05T00:45:42.172Z,65.11
2017-05-05T00:46:52.523Z,65.11
2017-05-05T00:48:02.879Z,64.91
2017-05-05T00:49:13.242Z,65.11
2017-05-05T00:50:23.583Z,65.01
2017-05-05T00:51:33.315Z,65.11
2017-05-05T00:52:43.020Z,64.82
2017-05-05T00:53:53.365Z,64.82
2017-05-05T00:55:03.406Z,65.2
2017-05-05T00:56:13.758Z,65.01
2017-05-05T00:57:24.156Z,65.11
2017-05-05T00:58:34.516Z,65.11
2017-05-05T00:59:44.912Z,65.11
2017-05-05T01:00:55.272Z,64.78
2017-05-05T01:02:05.305Z,64.82
2017-05-05T01:03:15.647Z,64.78
2017-05-05T01:04:25.710Z,65.17
2017-05-05T01:05:36.070Z,65.07
2017-05-05T01:06:46.402Z,64.98
2017-05-05T01:07:56.752Z,65.07
2017-05-05T01:09:07.110Z,64.69
2017-05-05T01:10:17.442Z,64.43
2017-05-05T01:11:27.811Z,64.34
2017-05-05T01:12:37.526Z,64.34
2017-05-05T01:13:47.884Z,64.05
2017-05-05T01:14:58.230Z,64.43
2017-05-05T01:16:08.510Z,64.25
2017-05-05T01:17:18.838Z,64.25
2017-05-05T01:18:29.189Z,64.25
2017-05-05T01:19:39.538Z,64.15
2017-05-05T01:20:49.882Z,64.15
2017-05-05T01:22:00.229Z,64.43
2017-05-05T01:23:10.266Z,63.96
2017-05-05T01:24:20.621Z,64.25
2017-05-05T01:25:30.963Z,63.96
2017-05-05T01:26:41.002Z,64.25
2017-05-05T01:27:51.346Z,64.05
2017-05-05T01:29:01.689Z,64.43
2017-05-05T01:30:12.039Z,64.25
2017-05-05T01:31:21.743Z,64.43
2017-05-05T01:32:32.099Z,64.43
2017-05-05T01:33:42.444Z,63.99
2017-05-05T01:34:52.161Z,64.47
2017-05-05T01:36:02.206Z,64.37
2017-05-05T01:37:12.536Z,64.37
2017-05-05T01:38:22.879Z,64.47
2017-05-05T01:39:32.892Z,64.56
2017-05-05T01:40:43.266Z,64.66
2017-05-05T01:41:53.298Z,64.72
2017-05-05T01:43:03.645Z,65.2
2017-05-05T01:44:14.003Z,65.11
2017-05-05T01:45:24.351Z,64.85
2017-05-05T01:46:34.699Z,64.91
2017-05-05T01:47:45.070Z,65.11
2017-05-05T01:48:55.425Z,64.82
2017-05-05T01:50:05.771Z,64.82
2017-05-05T01:51:15.807Z,65.11
2017-05-05T01:52:26.169Z,65.01
2017-05-05T01:53:36.536Z,65.11
2017-05-05T01:54:46.888Z,65.3
2017-05-05T01:55:56.926Z,65.11
2017-05-05T01:57:07.283Z,65.2
2017-05-05T01:58:17.002Z,65.3
2017-05-05T01:59:27.026Z,65.11
2017-05-05T02:00:37.376Z,65.3
2017-05-05T02:01:47.758Z,65.2
2017-05-05T02:02:58.112Z,65.01
2017-05-05T02:04:08.457Z,65.11
2017-05-05T02:05:18.800Z,65.3
2017-05-05T02:06:29.149Z,64.91
2017-05-05T02:07:39.502Z,64.82
2017-05-05T02:08:49.860Z,64.82
2017-05-05T02:10:00.224Z,64.82
2017-05-05T02:11:10.561Z,64.82
2017-05-05T02:12:20.898Z,65.01
2017-05-05T02:13:31.246Z,64.82
2017-05-05T02:14:41.272Z,65.01
2017-05-05T02:15:51.608Z,65.01
2017-05-05T02:17:01.972Z,65.11
2017-05-05T02:18:12.308Z,65.01
2017-05-05T02:19:22.654Z,65.01
2017-05-05T02:20:32.369Z,64.82
2017-05-05T02:21:42.738Z,64.72
2017-05-05T02:22:52.762Z,64.82
2017-05-05T02:24:03.106Z,64.82
2017-05-05T02:25:13.452Z,64.82
2017-05-05T02:26:23.821Z,64.72
2017-05-05T02:27:34.171Z,64.72
2017-05-05T02:28:44.519Z,64.62
2017-05-05T02:29:54.552Z,64.72
2017-05-05T02:31:04.944Z,65.2
2017-05-05T02:32:14.958Z,65.2
2017-05-05T02:33:24.990Z,65.11
2017-05-05T02:34:35.327Z,65.11
2017-05-05T02:35:45.665Z,64.82
2017-05-05T02:36:55.681Z,65.17
2017-05-05T02:38:05.713Z,65.11
2017-05-05T02:39:16.057Z,64.98
2017-05-05T02:40:26.406Z,64.98
2017-05-05T02:41:36.418Z,64.78
2017-05-05T02:42:46.763Z,64.78
2017-05-05T02:43:57.117Z,64.78
2017-05-05T02:45:07.456Z,64.78
2017-05-05T02:46:17.487Z,64.78
2017-05-05T02:47:27.831Z,65.07
2017-05-05T02:48:38.171Z,64.98
2017-05-05T02:49:48.198Z,65.07
2017-05-05T02:50:58.543Z,64.98
2017-05-05T02:52:08.891Z,65.07
2017-05-05T02:53:19.288Z,64.75
2017-05-05T02:54:29.660Z,64.75
2017-05-05T02:55:39.383Z,64.75
2017-05-05T02:56:49.405Z,65.14
2017-05-05T02:57:59.754Z,65.04
2017-05-05T02:59:09.779Z,64.75
2017-05-05T03:00:20.129Z,65.04
2017-05-05T03:01:30.180Z,64.85
2017-05-05T03:33:18.371Z,62.59
2017-05-05T03:34:28.694Z,62.97
2017-05-05T03:35:38.713Z,64.02
2017-05-05T03:36:49.048Z,64.59
2017-05-05T03:37:59.384Z,65.07
2017-05-05T03:39:09.731Z,65.16
2017-05-05T03:40:20.072Z,65.86
2017-05-05T03:41:30.085Z,65.96
2017-05-05T03:42:40.120Z,66.15
2017-05-05T03:43:50.448Z,66.15
2017-05-05T03:45:00.834Z,65.99
2017-05-05T03:46:11.187Z,65.89
2017-05-05T03:47:21.538Z,65.7
2017-05-05T03:48:31.872Z,65.64
2017-05-05T03:49:41.604Z,65.45
2017-05-05T03:50:51.962Z,65.55
2017-05-05T03:52:02.306Z,64.91
2017-05-05T03:53:12.047Z,65.1
2017-05-05T03:54:22.387Z,65.2
2017-05-05T03:55:32.737Z,65.39
2017-05-05T03:56:43.098Z,65.23
2017-05-05T03:57:53.454Z,65.61
2017-05-05T03:59:03.804Z,65.42
2017-05-05T04:00:13.845Z,64.85
2017-05-05T04:01:23.898Z,65.23
2017-05-05T04:02:33.910Z,65.04
2017-05-05T04:03:44.263Z,64.94
2017-05-05T04:04:54.325Z,64.78
2017-05-05T04:06:04.361Z,64.98
2017-05-05T04:07:14.391Z,65.07
2017-05-05T04:08:24.743Z,65.07
2017-05-05T04:09:35.077Z,64.5
2017-05-05T04:10:45.426Z,64.53
2017-05-05T04:11:55.770Z,64.43
2017-05-05T04:13:06.102Z,64.53
2017-05-05T04:14:16.131Z,63.86
2017-05-05T04:15:26.480Z,63.8
2017-05-05T04:16:36.797Z,63.7
2017-05-05T04:17:47.144Z,63.8
2017-05-05T04:18:57.496Z,63.64
2017-05-05T04:20:07.830Z,63.35
2017-05-05T04:21:18.172Z,63.26
2017-05-05T04:22:28.519Z,63.39
2017-05-05T04:23:38.857Z,63.48
2017-05-05T04:24:49.203Z,63.29
2017-05-05T04:25:59.549Z,63.39
2017-05-05T04:27:09.582Z,62.74
2017-05-05T04:28:19.611Z,62.55
2017-05-05T04:29:29.956Z,63.16
2017-05-05T04:30:39.978Z,63.26
2017-05-05T04:31:50.320Z,63.26
2017-05-05T04:33:00.659Z,63.6
2017-05-05T04:34:11.019Z,64.18
2017-05-05T04:35:21.048Z,63.99
2017-05-05T04:36:31.410Z,63.89
2017-05-05T04:37:41.758Z,64.09
2017-05-05T04:38:51.804Z,64.28
2017-05-05T04:40:01.515Z,64.56
2017-05-05T04:41:11.855Z,64.66
2017-05-05T04:42:22.192Z,64.56
2017-05-05T04:43:32.532Z,64.28
2017-05-05T04:44:42.562Z,64.56
2017-05-05T04:45:52.899Z,64.09
2017-05-05T04:47:03.252Z,64.76
2017-05-05T04:48:12.977Z,64.56
2017-05-05T04:49:23.063Z,64.12
2017-05-05T04:50:33.102Z,63.92
2017-05-05T04:51:43.468Z,63.83
2017-05-05T04:52:53.845Z,63.19
2017-05-05T04:54:03.562Z,63.38
2017-05-05T04:55:13.903Z,63.03
2017-05-05T04:56:24.240Z,63.12
2017-05-05T04:57:34.575Z,63.32
2017-05-05T04:58:44.919Z,62.45
2017-05-05T04:59:54.967Z,62.77
2017-05-05T05:01:05.311Z,62.58
2017-05-05T05:02:15.649Z,62.96
2017-05-05T05:03:25.975Z,62.68
2017-05-05T05:04:36.317Z,62.71
2017-05-05T05:05:46.369Z,62.52
2017-05-05T05:06:56.725Z,62.71
2017-05-05T05:08:06.761Z,63.28
2017-05-05T05:09:17.094Z,62.99
2017-05-05T05:10:27.436Z,63.09
2017-05-05T05:11:37.791Z,63.09
2017-05-05T05:12:48.139Z,63.38
2017-05-05T05:13:58.509Z,63.28
2017-05-05T05:15:08.833Z,63.48
2017-05-05T05:16:19.168Z,63.48
2017-05-05T05:17:29.516Z,63.57
2017-05-05T05:18:39.242Z,63.57
2017-05-05T05:19:49.590Z,63.76
2017-05-05T05:20:59.944Z,64.25
2017-05-05T05:22:10.298Z,64.25
2017-05-05T05:23:20.635Z,64.15
2017-05-05T05:24:30.695Z,64.43
2017-05-05T05:25:41.038Z,63.57
2017-05-05T05:26:51.078Z,63.32
2017-05-05T05:28:01.412Z,62.29
2017-05-05T05:29:11.766Z,60.78
2017-05-05T05:30:21.793Z,60.75
2017-05-05T05:31:32.135Z,60.55
2017-05-05T05:32:42.463Z,61.07
2017-05-05T05:33:52.800Z,61.32
2017-05-05T05:35:03.150Z,62.19
2017-05-05T05:36:13.484Z,62.29
2017-05-05T05:37:23.827Z,62.74
2017-05-05T05:38:34.176Z,62.74
2017-05-05T05:39:44.514Z,63.51
2017-05-05T05:40:54.873Z,63.51
2017-05-05T05:42:05.222Z,63.31
2017-05-05T05:43:15.256Z,62.93
2017-05-05T05:44:25.605Z,62.57
2017-05-05T05:45:35.648Z,62.57
2017-05-05T05:46:46.016Z,62.19
2017-05-05T05:47:56.046Z,62.38
2017-05-05T05:49:06.403Z,63.25
2017-05-05T05:50:16.751Z,63.41
2017-05-05T05:51:27.098Z,63.6
2017-05-05T05:52:37.453Z,63.51
2017-05-05T05:53:47.817Z,63.6
2017-05-05T05:54:58.175Z,64.18
2017-05-05T05:56:08.191Z,64.05
2017-05-05T05:57:18.589Z,64.15
2017-05-05T05:58:28.930Z,64.05
2017-05-05T05:59:39.278Z,64.05
2017-05-05T06:00:49.304Z,63.48
2017-05-05T06:01:59.650Z,63.67
2017-05-05T06:03:09.997Z,63.48
2017-05-05T06:04:20.343Z,63.67
2017-05-05T06:05:30.436Z,63.67
2017-05-05T06:06:40.792Z,63.48
2017-05-05T06:07:51.140Z,63.48
2017-05-05T06:09:00.877Z,63.38
2017-05-05T06:10:10.912Z,63.48
2017-05-05T06:11:21.236Z,63.48
2017-05-05T06:12:31.281Z,63.28
2017-05-05T06:13:41.344Z,62.8
2017-05-05T06:14:51.700Z,63.22
2017-05-05T06:16:02.051Z,62.54
2017-05-05T06:17:12.083Z,62.45
2017-05-05T06:18:22.126Z,62.45
2017-05-05T06:27:35.079Z,61.96
2017-05-05T06:28:45.134Z,61.87
2017-05-05T06:29:55.478Z,61.87
2017-05-05T06:31:05.834Z,62.06
2017-05-05T06:32:15.862Z,62.15
2017-05-05T06:33:25.595Z,62.35
2017-05-05T06:34:35.953Z,62.06
2017-05-05T06:35:46.292Z,62.54
2017-05-05T06:36:56.655Z,61.96
2017-05-05T06:38:07.007Z,62.73
2017-05-05T06:39:17.353Z,62.83
2017-05-05T06:40:27.715Z,62.83
2017-05-05T06:41:38.078Z,62.35
2017-05-05T06:42:48.433Z,62.45
2017-05-05T06:43:58.785Z,62.45
2017-05-05T06:45:08.826Z,62.25
2017-05-05T06:46:19.187Z,62.35
2017-05-05T06:47:29.529Z,62.45
2017-05-05T06:48:39.891Z,62.35
2017-05-05T06:49:49.927Z,62.63
2017-05-05T06:51:00.281Z,62.63
2017-05-05T06:52:10.631Z,62.63
2017-05-05T06:53:20.987Z,62.45
2017-05-05T06:54:31.014Z,62.35
2017-05-05T06:55:41.377Z,62.63
2017-05-05T06:56:51.411Z,62.45
2017-05-05T06:58:01.456Z,62.54
2017-05-05T06:59:11.511Z,62.54
2017-05-05T07:00:21.559Z,62.63
2017-05-05T07:01:31.599Z,62.25
2017-05-05T07:02:41.957Z,62.25
2017-05-05T07:03:52.000Z,62.38
2017-05-05T07:05:02.036Z,62.09
2017-05-05T07:06:12.377Z,62.48
2017-05-05T07:07:22.767Z,62.18
2017-05-05T07:08:32.490Z,61.93
2017-05-05T07:09:42.566Z,61.99
2017-05-05T07:10:52.927Z,61.83
2017-05-05T07:12:02.973Z,61.74
2017-05-05T07:13:13.336Z,61.83
2017-05-05T07:14:23.674Z,61.93
2017-05-05T07:15:34.022Z,61.86
2017-05-05T07:16:44.058Z,61.47
2017-05-05T07:17:54.103Z,61.57
2017-05-05T07:19:04.462Z,61.38
2017-05-05T07:20:14.826Z,61.28
2017-05-05T07:21:25.177Z,61.28
2017-05-05T07:22:35.525Z,61.31
2017-05-05T07:23:45.892Z,61.22
2017-05-05T07:24:56.264Z,61.41
2017-05-05T07:26:06.629Z,61.15
2017-05-05T07:27:16.674Z,61.15
2017-05-05T07:28:26.703Z,61.25
2017-05-05T07:29:37.063Z,61.44
2017-05-05T07:30:47.105Z,60.86
2017-05-05T07:31:56.849Z,61.08
2017-05-05T07:33:07.216Z,61.18
2017-05-05T07:34:17.580Z,61.08
2017-05-05T07:35:27.938Z,60.99
2017-05-05T07:36:37.982Z,60.79
2017-05-05T07:37:48.291Z,60.79
2017-05-05T07:38:58.335Z,61.27
2017-05-05T07:40:08.696Z,61.37
2017-05-05T07:41:19.059Z,61.18
2017-05-05T07:42:29.103Z,60.89
2017-05-05T07:43:39.147Z,61.25
2017-05-05T07:44:49.514Z,60.86
2017-05-05T07:45:59.883Z,60.86
2017-05-05T07:47:09.964Z,61.34
2017-05-05T07:48:20.025Z,61.25
2017-05-05T07:49:30.401Z,61.25
2017-05-05T07:50:40.767Z,60.76
2017-05-05T07:51:51.133Z,61.15
2017-05-05T07:53:01.505Z,61.25
2017-05-05T07:54:11.872Z,61.44
2017-05-05T07:55:21.799Z,60.86
2017-05-05T07:56:31.828Z,60.67
2017-05-05T07:57:41.870Z,60.76
2017-05-05T07:58:52.292Z,60.67
2017-05-05T08:00:02.661Z,61.05
2017-05-05T08:01:13.011Z,61.05
2017-05-05T08:02:23.359Z,60.67
2017-05-05T08:03:33.098Z,61.34
2017-05-05T08:04:43.153Z,61.44
2017-05-05T08:05:53.504Z,61.15
2017-05-05T08:07:03.880Z,61.05
2017-05-05T08:08:13.906Z,61.15
2017-05-05T08:09:24.263Z,61.15
2017-05-05T08:10:34.320Z,61.25
2017-05-05T08:11:44.676Z,60.96
2017-05-05T08:12:55.013Z,61.25
2017-05-05T08:14:05.400Z,61.15
2017-05-05T08:15:15.757Z,61.44
2017-05-05T08:16:25.792Z,61.44
2017-05-05T08:17:35.831Z,61.25
2017-05-05T08:18:46.188Z,61.25
2017-05-05T08:19:56.569Z,61.34
2017-05-05T08:21:06.919Z,61.25
2017-05-05T08:22:16.958Z,61.15
2017-05-05T08:23:27.301Z,61.05
2017-05-05T08:24:37.351Z,61.05
2017-05-05T08:25:47.699Z,61.6
2017-05-05T08:26:57.745Z,61.83
2017-05-05T08:28:07.782Z,62.66
2017-05-05T08:29:18.145Z,62.47
2017-05-05T08:30:28.494Z,62.73
2017-05-05T08:31:38.849Z,62.73
2017-05-05T08:32:49.204Z,63.09
2017-05-05T08:33:59.572Z,63.47
2017-05-05T08:35:09.935Z,63.57
2017-05-05T08:36:20.307Z,63.63
2017-05-05T08:37:30.655Z,63.54
2017-05-05T08:38:41.009Z,63.6
2017-05-05T08:39:51.356Z,63.7
2017-05-05T08:41:01.423Z,63.7
2017-05-05T08:42:11.778Z,63.79
2017-05-05T08:43:21.836Z,63.5
2017-05-05T08:44:32.176Z,63.57
2017-05-05T08:45:42.549Z,63.85
2017-05-05T08:46:52.915Z,63.57
2017-05-05T08:48:02.962Z,63.5
2017-05-05T08:49:12.686Z,63.6
2017-05-05T08:50:23.049Z,63.5
2017-05-05T08:51:33.425Z,62.93
2017-05-05T08:52:43.785Z,63.02
2017-05-05T08:53:53.848Z,63.02
2017-05-05T08:55:04.190Z,62.83
2017-05-05T08:56:13.614Z,62.93
2017-05-05T08:57:23.343Z,63.02
2017-05-05T08:58:33.705Z,62.83
2017-05-05T08:59:44.083Z,62.9
2017-05-05T09:00:54.446Z,63.21
2017-05-05T09:02:04.508Z,62.45
2017-05-05T09:03:14.861Z,62.6
2017-05-05T09:04:24.909Z,62.35
2017-05-05T09:05:34.935Z,62.25
2017-05-05T09:06:45.277Z,62.25
2017-05-05T09:07:55.006Z,62.06
2017-05-05T09:09:05.339Z,61.99
2017-05-05T09:10:15.375Z,61.8
2017-05-05T09:11:25.412Z,61.61
2017-05-05T09:12:35.776Z,61.71
2017-05-05T09:13:46.108Z,61.8
2017-05-05T09:14:56.465Z,62.28
2017-05-05T09:16:06.829Z,62.18
2017-05-05T09:17:17.200Z,62.57
2017-05-05T09:18:27.547Z,62.57
2017-05-05T09:19:37.582Z,62.18
2017-05-05T09:20:47.960Z,62.09
2017-05-05T09:21:57.995Z,61.61
2017-05-05T09:23:08.338Z,62.02
2017-05-05T09:24:18.680Z,62.02
2017-05-05T09:25:29.075Z,61.83
2017-05-05T09:26:39.450Z,62.12
2017-05-05T09:27:49.813Z,61.57
2017-05-05T09:29:00.186Z,61.19
2017-05-05T09:30:10.540Z,61.67
2017-05-05T09:31:20.898Z,61.47
2017-05-05T09:32:30.954Z,61.38
2017-05-05T09:33:41.002Z,61.47
2017-05-05T09:34:51.374Z,61.51
2017-05-05T09:36:01.421Z,61.38
2017-05-05T09:37:11.780Z,61.51
2017-05-05T09:38:21.814Z,61.7
2017-05-05T09:39:31.863Z,62.15
2017-05-05T09:40:42.217Z,61.8
2017-05-05T09:41:52.578Z,61.86
2017-05-05T09:43:02.933Z,61.96
2017-05-05T09:44:13.277Z,62.34
2017-05-05T09:45:23.620Z,62.25
2017-05-05T09:46:33.969Z,62.44
2017-05-05T09:47:44.007Z,62.05
2017-05-05T09:48:54.408Z,62.15
2017-05-05T09:50:04.169Z,62.25
2017-05-05T09:51:14.506Z,62.44
2017-05-05T09:52:24.549Z,62.25
2017-05-05T09:53:34.285Z,61.96
2017-05-05T09:54:44.635Z,61.96
2017-05-05T09:55:54.984Z,61.77
2017-05-05T09:57:05.341Z,61.96
2017-05-05T09:58:15.700Z,61.96
2017-05-05T09:59:26.062Z,62.34
2017-05-05T10:00:35.783Z,62.34
2017-05-05T10:01:46.147Z,61.28
2017-05-05T10:02:56.498Z,61.8
2017-05-05T10:04:06.879Z,61.77
2017-05-05T10:05:17.231Z,61.51
2017-05-05T10:06:27.596Z,61.12
2017-05-05T10:07:37.944Z,61.02
2017-05-05T10:08:48.317Z,60.67
2017-05-05T10:09:58.680Z,60.57
2017-05-05T10:11:08.741Z,61.15
2017-05-05T10:12:19.129Z,60.69
2017-05-05T10:13:29.517Z,60.5
2017-05-05T10:14:39.890Z,60.63
2017-05-05T10:15:49.936Z,60.37
2017-05-05T10:17:00.297Z,60.27
2017-05-05T10:18:10.658Z,59.89
2017-05-05T10:19:21.017Z,60.21
2017-05-05T10:20:31.077Z,59.91
2017-05-05T10:21:41.133Z,59.91
2017-05-05T10:22:51.486Z,60.14
2017-05-05T10:24:01.537Z,60.33
2017-05-05T10:25:11.891Z,60.11
2017-05-05T10:26:22.249Z,60.4
2017-05-05T10:27:32.606Z,60.33
2017-05-05T10:28:42.967Z,60.24
2017-05-05T10:29:53.019Z,60.24
2017-05-05T10:31:03.374Z,60.14
2017-05-05T10:32:13.729Z,60.43
2017-05-05T10:33:24.101Z,59.78
2017-05-05T10:34:34.458Z,59.59
2017-05-05T10:35:44.839Z,59.69
2017-05-05T10:36:54.576Z,59.23
2017-05-05T10:38:04.958Z,59.03
2017-05-05T10:39:15.011Z,58.87
2017-05-05T10:40:25.356Z,58.67
2017-05-05T10:41:35.724Z,58.12
2017-05-05T10:42:46.079Z,58.41
2017-05-05T10:43:56.441Z,58.41
2017-05-05T10:45:06.777Z,58.7
2017-05-05T10:46:16.825Z,58.93
2017-05-05T10:47:27.215Z,59.19
2017-05-05T10:48:37.596Z,58.8
2017-05-05T10:49:47.642Z,59.97
2017-05-05T10:50:58.008Z,60.16
2017-05-05T10:52:07.739Z,60.61
2017-05-05T10:53:18.334Z,60.81
2017-05-05T10:54:28.699Z,60.78
2017-05-05T10:55:39.060Z,60.68
2017-05-05T10:56:49.408Z,60.68
2017-05-05T10:57:59.777Z,60.46
2017-05-05T10:59:10.142Z,61.17
2017-05-05T11:00:20.171Z,60.55
2017-05-05T11:01:30.526Z,61.14
2017-05-05T11:02:40.277Z,59.91
2017-05-05T11:03:50.351Z,59.33
2017-05-05T11:05:00.099Z,59.26
2017-05-05T11:06:09.835Z,58.7
2017-05-05T11:07:20.203Z,58.12
2017-05-05T11:08:30.573Z,58.05
2017-05-05T11:09:40.647Z,57.69
2017-05-05T11:10:51.008Z,57.43
2017-05-05T11:12:01.373Z,57.53
2017-05-05T11:13:11.721Z,57.56
2017-05-05T11:14:22.065Z,57.65
2017-05-05T11:15:31.824Z,57.75
2017-05-05T11:16:41.868Z,58.14
2017-05-05T11:17:51.907Z,59.47
2017-05-05T11:19:02.249Z,59.76
2017-05-05T11:20:12.295Z,59.7
2017-05-05T11:21:22.348Z,61.13
2017-05-05T11:22:32.709Z,61
2017-05-05T11:23:42.741Z,60.61
2017-05-05T11:24:53.120Z,60.42
2017-05-05T11:26:03.475Z,60.61
2017-05-05T11:27:13.835Z,60.42
2017-05-05T11:28:24.191Z,60.35
2017-05-05T11:29:33.920Z,59.64
2017-05-05T11:30:43.679Z,59.67
2017-05-05T11:31:54.030Z,59.87
2017-05-05T11:33:04.381Z,59.77
2017-05-05T11:34:14.746Z,61.04
2017-05-05T11:35:25.122Z,60.58
2017-05-05T11:36:35.177Z,60.88
2017-05-05T11:37:45.236Z,59.84
2017-05-05T11:38:55.307Z,58.97
2017-05-05T11:40:05.675Z,59.28
2017-05-05T11:41:16.038Z,58.93
2017-05-05T11:42:26.383Z,58.83
2017-05-05T11:43:36.722Z,58.57
2017-05-05T11:44:47.093Z,59.34
2017-05-05T11:45:57.467Z,59.31
2017-05-05T11:47:07.823Z,59.44
2017-05-05T11:48:18.174Z,59.34
2017-05-05T11:49:28.560Z,58.86
2017-05-05T11:50:38.935Z,60
2017-05-05T11:51:48.985Z,59.92
2017-05-05T11:52:59.024Z,59.8
2017-05-05T11:54:09.380Z,60.09
2017-05-05T11:55:19.424Z,61.07
2017-05-05T11:56:29.774Z,60.91
2017-05-05T11:57:39.811Z,60.71
2017-05-05T11:58:49.851Z,60.71
2017-05-05T12:00:00.201Z,61.36
2017-05-05T12:01:09.931Z,62.69
2017-05-05T12:02:20.294Z,62.56
2017-05-05T12:03:30.314Z,62.82
2017-05-05T12:04:40.672Z,62.43
2017-05-05T12:05:50.727Z,61.46
2017-05-05T12:07:01.094Z,61.3
2017-05-05T12:08:11.479Z,60.55
2017-05-05T12:09:21.845Z,60.55
2017-05-05T12:10:31.877Z,60.1
2017-05-05T12:11:41.936Z,59.94
2017-05-05T12:12:52.301Z,58.9
2017-05-05T12:14:02.670Z,58.64
2017-05-05T12:15:12.725Z,58.18
2017-05-05T12:16:23.093Z,59.64
2017-05-05T12:17:33.116Z,60.64
2017-05-05T12:18:43.457Z,60.42
2017-05-05T12:19:53.830Z,60.32
2017-05-05T12:21:03.885Z,60.71
2017-05-05T12:22:14.250Z,61.1
2017-05-05T12:23:24.604Z,60.58
2017-05-05T12:24:34.960Z,60.58
2017-05-05T12:25:44.997Z,60.71
2017-05-05T12:26:55.378Z,60.35
2017-05-05T12:28:05.733Z,60.06
2017-05-05T12:29:16.093Z,60.16
2017-05-05T12:30:26.452Z,60.35
2017-05-05T12:31:36.837Z,60.84
2017-05-05T12:32:47.212Z,61.39
2017-05-05T12:33:57.576Z,61.49
2017-05-05T12:35:07.932Z,60.61
2017-05-05T12:36:18.298Z,60.61
2017-05-05T12:37:28.349Z,60.16
2017-05-05T12:38:38.711Z,60.55
2017-05-05T12:39:49.077Z,60.74
2017-05-05T12:40:59.455Z,60.71
2017-05-05T12:42:09.798Z,60.71
2017-05-05T12:43:20.147Z,60.88
2017-05-05T12:44:30.510Z,61.17
2017-05-05T12:45:40.866Z,61.17
2017-05-05T12:46:51.230Z,61.07
2017-05-05T12:48:01.260Z,61.26
2017-05-05T12:49:11.307Z,60.94
2017-05-05T12:50:21.679Z,60.94
2017-05-05T12:51:32.043Z,60.88
2017-05-05T12:52:42.628Z,60.68
2017-05-05T12:53:52.361Z,60.68
2017-05-05T12:55:02.734Z,60.71
2017-05-05T12:56:12.793Z,59.87
2017-05-05T12:57:22.831Z,59.58
2017-05-05T12:58:33.190Z,59.77
2017-05-05T12:59:43.535Z,60.74
2017-05-05T13:00:53.573Z,60.35
2017-05-05T13:02:03.921Z,60.06
2017-05-05T13:03:14.271Z,60.16
2017-05-05T13:04:24.634Z,60.45
2017-05-05T13:05:34.935Z,60.28
2017-05-05T13:06:45.301Z,60.19
2017-05-05T13:07:55.680Z,60.09
2017-05-05T13:09:06.032Z,59.74
2017-05-05T13:10:16.401Z,59.92
2017-05-05T13:11:26.776Z,59.74
2017-05-05T13:12:37.122Z,59.86
2017-05-05T13:13:47.516Z,59.95
2017-05-05T13:14:57.598Z,59.86
2017-05-05T13:16:07.950Z,59.86
2017-05-05T13:17:18.314Z,60.12
2017-05-05T13:18:28.677Z,60.41
2017-05-05T13:19:38.741Z,60.61
2017-05-05T13:20:48.778Z,60.51
2017-05-05T13:21:58.839Z,60.97
2017-05-05T13:23:08.867Z,60.68
2017-05-05T13:24:19.233Z,60.77
2017-05-05T13:25:29.601Z,60.84
2017-05-05T13:26:39.948Z,61.13
2017-05-05T13:27:49.693Z,61.29
2017-05-05T13:29:00.075Z,61.39
2017-05-05T13:30:10.442Z,61.29
2017-05-05T13:31:20.814Z,61.85
2017-05-05T13:32:31.196Z,61.72
2017-05-05T13:33:41.250Z,62.4
2017-05-05T13:34:51.608Z,62.3
2017-05-05T13:36:02.007Z,62.07
2017-05-05T13:37:12.382Z,62.17
2017-05-05T13:38:22.722Z,62.37
2017-05-05T13:39:33.086Z,62.72
2017-05-05T13:40:43.438Z,62.53
2017-05-05T13:41:53.500Z,62.63
2017-05-05T13:43:03.837Z,62.5
2017-05-05T13:44:14.177Z,62.88
2017-05-05T13:45:24.234Z,63.46
2017-05-05T13:46:34.597Z,62.95
2017-05-05T13:47:44.951Z,63.53
2017-05-05T13:48:54.979Z,63.5
2017-05-05T13:50:05.352Z,63.79
2017-05-05T13:51:15.706Z,63.95
2017-05-05T13:52:26.064Z,63.85
2017-05-05T13:53:36.453Z,63.85
2017-05-05T13:54:46.812Z,63.92
2017-05-05T13:55:57.176Z,64.31
2017-05-05T13:57:07.227Z,64.31
2017-05-05T13:58:17.593Z,64.47
2017-05-05T13:59:27.950Z,64.18
2017-05-05T14:00:38.317Z,64.18
2017-05-05T14:01:48.374Z,63.85
2017-05-05T14:02:58.738Z,64.53
2017-05-05T14:04:09.111Z,64.34
2017-05-05T14:05:19.476Z,64.79
2017-05-05T14:06:29.837Z,64.66
2017-05-05T14:07:40.181Z,64.86
2017-05-05T14:08:49.899Z,65.05
2017-05-05T14:10:00.261Z,64.47
2017-05-05T14:11:10.618Z,64.37
2017-05-05T14:12:20.974Z,64.37
2017-05-05T14:13:31.328Z,64.18
2017-05-05T14:14:41.681Z,63.5
2017-05-05T14:15:51.739Z,63.79
2017-05-05T14:17:02.088Z,63.5
2017-05-05T14:18:12.461Z,63.31
2017-05-05T14:19:22.827Z,63.6
2017-05-05T14:20:33.213Z,63.02
2017-05-05T14:21:43.253Z,63.02
2017-05-05T14:22:53.281Z,63.21
2017-05-05T14:24:03.881Z,62.38
2017-05-05T14:25:14.243Z,62.45
2017-05-05T14:26:24.613Z,62.86
2017-05-05T14:27:34.977Z,62.76
2017-05-05T14:28:45.349Z,62.76
2017-05-05T14:29:55.712Z,62.31
2017-05-05T14:31:06.058Z,62.79
2017-05-05T14:32:16.429Z,62.79
2017-05-05T14:33:26.796Z,62.7
2017-05-05T14:34:37.166Z,62.6
2017-05-05T14:35:47.513Z,62.66
2017-05-05T14:36:57.861Z,62.28
2017-05-05T14:38:07.903Z,62.31
2017-05-05T14:39:18.253Z,62.6
2017-05-05T14:40:28.618Z,62.31
2017-05-05T14:41:38.967Z,62.6
2017-05-05T14:42:49.010Z,62.51
2017-05-05T14:43:59.059Z,62.41
2017-05-05T14:45:09.455Z,62.89
2017-05-05T14:46:19.489Z,62.6
2017-05-05T14:47:29.542Z,62.02
2017-05-05T14:48:39.574Z,62.41
2017-05-05T14:49:49.937Z,62.25
2017-05-05T14:51:00.281Z,61.96
2017-05-05T14:52:10.644Z,61.67
2017-05-05T14:53:20.986Z,62.15
2017-05-05T14:54:31.013Z,62.25
2017-05-05T14:55:40.744Z,61.41
2017-05-05T14:56:50.805Z,61.7
2017-05-05T14:58:01.181Z,61.6
2017-05-05T14:59:11.534Z,61.6
2017-05-05T15:00:21.901Z,61.83
2017-05-05T15:01:32.266Z,61.54
2017-05-05T15:02:42.643Z,62.12
2017-05-05T15:03:52.996Z,62.18
2017-05-05T15:05:03.355Z,62.47
2017-05-05T15:06:13.437Z,62.86
2017-05-05T15:07:23.815Z,62.44
2017-05-05T15:08:33.841Z,63.31
2017-05-05T15:09:44.191Z,62.92
2017-05-05T15:10:54.553Z,63.67
2017-05-05T15:12:04.928Z,63.37
2017-05-05T15:13:15.283Z,63.67
2017-05-05T15:14:25.638Z,63.76
2017-05-05T15:15:35.988Z,63.54
2017-05-05T15:16:46.360Z,63.73
2017-05-05T15:17:56.713Z,63.73
2017-05-05T15:19:07.078Z,63.44
2017-05-05T15:20:17.136Z,63.7
2017-05-05T15:21:27.506Z,63.7
2017-05-05T15:22:37.919Z,63.5
2017-05-05T15:23:48.270Z,63.7
2017-05-05T15:24:58.314Z,63.6
2017-05-05T15:26:08.663Z,63.6
2017-05-05T15:27:19.275Z,63.5
2017-05-05T15:28:29.626Z,63.7
2017-05-05T15:29:39.997Z,63.6
2017-05-05T15:30:50.355Z,63.5
2017-05-05T15:32:00.082Z,63.31
2017-05-05T15:33:10.451Z,63.6
2017-05-05T15:34:20.817Z,63.15
2017-05-05T15:35:30.875Z,63.24
2017-05-05T15:36:41.242Z,62.76
2017-05-05T15:37:51.311Z,62.86
2017-05-05T15:39:01.044Z,62.48
2017-05-05T15:40:11.403Z,62.86
2017-05-05T15:41:21.769Z,62.48
2017-05-05T15:42:31.811Z,62.66
2017-05-05T15:43:41.855Z,62.6
2017-05-05T15:44:51.898Z,63.24
2017-05-05T15:46:01.932Z,63.06